createdAt,value
2022-12-18T00:00:24.842Z,60.94
2022-12-18T00:02:51.643Z,60.67
2022-12-18T00:05:18.340Z,60.92
2022-12-18T00:07:45.030Z,60.12
2022-12-18T00:10:11.731Z,60.54
2022-12-18T00:12:42.040Z,60.53
2022-12-18T00:15:08.719Z,60.55
2022-12-18T00:17:35.990Z,60.95
2022-12-18T00:20:02.662Z,61.70
2022-12-18T00:22:29.341Z,61.21
2022-12-18T00:24:56.049Z,60.65
2022-12-18T00:27:22.868Z,61.12
2022-12-18T00:29:49.501Z,61.77
2022-12-18T00:32:16.165Z,61.45
2022-12-18T00:34:42.814Z,62.33
2022-12-18T00:37:09.502Z,62.19
2022-12-18T00:39:36.216Z,61.37
2022-12-18T00:42:02.847Z,62.04
2022-12-18T00:44:29.462Z,60.69
2022-12-18T00:46:56.112Z,60.78
2022-12-18T00:49:22.720Z,61.31
2022-12-18T00:51:49.405Z,60.52
2022-12-18T00:54:16.023Z,61.04
2022-12-18T00:56:48.993Z,60.67
2022-12-18T00:59:16.411Z,61.23
2022-12-18T01:01:43.211Z,61.03
2022-12-18T01:04:09.971Z,61.02
2022-12-18T01:06:36.711Z,61.53
2022-12-18T01:09:03.351Z,60.79
2022-12-18T01:11:30.149Z,61.03
2022-12-18T01:13:56.840Z,61.73
2022-12-18T01:16:23.611Z,61.74
2022-12-18T01:18:50.335Z,61.24
2022-12-18T01:21:17.029Z,60.33
2022-12-18T01:23:43.656Z,60.67
2022-12-18T01:26:10.309Z,60.22
2022-12-18T01:28:37.021Z,60.47
2022-12-18T01:31:03.789Z,60.75
2022-12-18T01:33:30.498Z,60.59
2022-12-18T01:35:57.143Z,60.21
2022-12-18T01:38:23.773Z,60.69
2022-12-18T01:40:50.455Z,60.65
2022-12-18T01:43:17.103Z,61.10
2022-12-18T01:45:43.813Z,60.92
2022-12-18T01:48:10.496Z,61.51
2022-12-18T01:50:37.141Z,60.93
2022-12-18T01:53:03.914Z,60.15
2022-12-18T01:55:30.810Z,60.15
2022-12-18T01:57:57.446Z,60.63
2022-12-18T02:00:24.103Z,61.01
2022-12-18T02:02:50.841Z,61.21
2022-12-18T02:05:17.610Z,61.40
2022-12-18T02:07:44.338Z,61.33
2022-12-18T02:10:10.992Z,61.54
2022-12-18T02:12:37.685Z,61.76
2022-12-18T02:15:05.633Z,61.79
2022-12-18T02:17:32.268Z,60.92
2022-12-18T02:19:58.969Z,60.36
2022-12-18T02:22:25.628Z,61.30
2022-12-18T02:24:52.375Z,61.08
2022-12-18T02:27:19.027Z,60.88
2022-12-18T02:29:45.664Z,61.02
2022-12-18T02:32:12.330Z,60.72
2022-12-18T02:34:39.238Z,60.67
2022-12-18T02:37:05.932Z,60.60
2022-12-18T02:39:32.629Z,60.46
2022-12-18T02:41:59.323Z,61.14
2022-12-18T02:44:25.992Z,60.63
2022-12-18T02:46:52.611Z,60.52
2022-12-18T02:49:19.296Z,60.71
2022-12-18T02:51:46.000Z,60.88
2022-12-18T02:54:12.708Z,60.88
2022-12-18T02:56:39.419Z,61.17
2022-12-18T02:59:06.115Z,60.64
2022-12-18T03:01:32.915Z,60.17
2022-12-18T03:03:59.639Z,61.08
2022-12-18T03:06:26.344Z,61.15
2022-12-18T03:08:53.018Z,60.68
2022-12-18T03:11:19.645Z,60.97
2022-12-18T03:13:46.325Z,60.67
2022-12-18T03:16:13.002Z,60.74
2022-12-18T03:18:39.672Z,61.17
2022-12-18T03:21:06.391Z,60.26
2022-12-18T03:23:34.108Z,60.98
2022-12-18T03:26:05.804Z,60.15
2022-12-18T03:28:34.092Z,60.00
2022-12-18T03:31:00.767Z,60.17
2022-12-18T03:33:27.429Z,60.09
2022-12-18T03:35:54.117Z,60.89
2022-12-18T03:38:20.840Z,60.99
2022-12-18T03:40:47.466Z,61.89
2022-12-18T03:43:14.094Z,61.13
2022-12-18T03:45:40.835Z,61.78
2022-12-18T03:48:07.518Z,61.52
2022-12-18T03:50:34.206Z,60.51
2022-12-18T03:53:05.234Z,61.65
2022-12-18T03:55:31.889Z,61.54
2022-12-18T03:57:58.524Z,61.62
2022-12-18T04:00:25.164Z,61.80
2022-12-18T04:02:51.840Z,61.22
2022-12-18T04:05:18.534Z,61.58
2022-12-18T04:07:45.173Z,60.42
2022-12-18T04:10:11.841Z,60.93
2022-12-18T04:12:38.481Z,61.09
2022-12-18T04:15:05.153Z,61.56
2022-12-18T04:17:31.780Z,60.92
2022-12-18T04:19:58.429Z,60.69
2022-12-18T04:22:25.072Z,60.30
2022-12-18T04:24:51.757Z,60.26
2022-12-18T04:27:18.444Z,61.00
2022-12-18T04:29:45.169Z,59.91
2022-12-18T04:32:11.832Z,61.18
2022-12-18T04:34:38.494Z,61.57
2022-12-18T04:37:05.186Z,60.83
2022-12-18T04:39:31.815Z,61.16
2022-12-18T04:41:58.482Z,60.77
2022-12-18T04:44:25.154Z,61.38
2022-12-18T04:46:51.885Z,61.17
2022-12-18T04:49:18.652Z,60.86
2022-12-18T04:51:45.352Z,61.46
2022-12-18T04:54:12.026Z,61.18
2022-12-18T04:56:38.714Z,60.70
2022-12-18T04:59:05.378Z,61.22
2022-12-18T05:01:34.736Z,60.96
2022-12-18T05:04:01.969Z,60.41
2022-12-18T05:06:28.801Z,60.46
2022-12-18T05:08:55.460Z,60.47
2022-12-18T05:11:22.149Z,60.78
2022-12-18T05:13:48.805Z,60.79
2022-12-18T05:16:15.565Z,60.79
2022-12-18T05:18:42.280Z,60.45
2022-12-18T05:21:08.896Z,60.30
2022-12-18T05:23:35.531Z,60.09
2022-12-18T05:26:02.162Z,60.27
2022-12-18T05:28:28.821Z,60.23
2022-12-18T05:30:55.508Z,59.91
2022-12-18T05:33:22.280Z,60.96
2022-12-18T05:35:48.933Z,60.83
2022-12-18T05:38:15.634Z,60.08
2022-12-18T05:40:42.299Z,60.80
2022-12-18T05:43:08.963Z,60.41
2022-12-18T05:45:35.613Z,60.12
2022-12-18T05:48:02.261Z,60.14
2022-12-18T05:50:28.943Z,60.21
2022-12-18T05:52:55.641Z,59.87
2022-12-18T05:55:22.399Z,59.85
2022-12-18T05:57:49.097Z,60.99
2022-12-18T06:00:15.772Z,60.43
2022-12-18T06:02:43.494Z,60.38
2022-12-18T06:05:10.229Z,61.07
2022-12-18T06:07:36.880Z,60.65
2022-12-18T06:10:03.543Z,60.36
2022-12-18T06:12:30.204Z,59.95
2022-12-18T06:14:56.887Z,60.45
2022-12-18T06:17:23.505Z,60.45
2022-12-18T06:19:50.166Z,60.76
2022-12-18T06:22:16.838Z,60.50
2022-12-18T06:24:43.468Z,59.81
2022-12-18T06:27:10.079Z,60.33
2022-12-18T06:29:36.736Z,59.84
2022-12-18T06:32:03.734Z,60.79
2022-12-18T06:34:30.524Z,60.68
2022-12-18T06:36:57.223Z,60.07
2022-12-18T06:39:23.887Z,60.67
2022-12-18T06:41:50.558Z,61.37
2022-12-18T06:44:17.259Z,61.00
2022-12-18T06:46:43.943Z,61.37
2022-12-18T06:49:10.595Z,60.86
2022-12-18T06:51:37.539Z,61.71
2022-12-18T06:54:04.221Z,61.56
2022-12-18T06:56:30.823Z,61.39
2022-12-18T06:58:57.581Z,61.88
2022-12-18T07:01:24.345Z,60.93
2022-12-18T07:03:51.120Z,60.99
2022-12-18T07:06:17.790Z,60.62
2022-12-18T07:08:44.402Z,60.67
2022-12-18T07:11:11.066Z,61.16
2022-12-18T07:13:38.144Z,61.17
2022-12-18T07:16:06.833Z,61.40
2022-12-18T07:18:36.395Z,59.86
2022-12-18T07:21:03.068Z,60.84
2022-12-18T07:23:29.725Z,60.59
2022-12-18T07:25:56.388Z,60.72
2022-12-18T07:28:23.108Z,61.68
2022-12-18T07:30:50.701Z,62.19
2022-12-18T07:33:17.369Z,61.71
2022-12-18T07:35:43.986Z,61.85
2022-12-18T07:38:10.707Z,62.04
2022-12-18T07:40:37.335Z,61.73
2022-12-18T07:43:03.996Z,60.80
2022-12-18T07:45:30.775Z,60.37
2022-12-18T07:47:57.476Z,61.13
2022-12-18T07:50:24.153Z,61.53
2022-12-18T07:52:50.850Z,62.10
2022-12-18T07:55:17.494Z,62.12
2022-12-18T07:57:53.424Z,61.66
2022-12-18T08:00:23.215Z,61.27
2022-12-18T08:02:50.003Z,60.35
2022-12-18T08:05:16.775Z,60.77
2022-12-18T08:07:43.493Z,60.96
2022-12-18T08:10:10.131Z,60.65
2022-12-18T08:12:36.845Z,60.46
2022-12-18T08:15:03.466Z,60.40
2022-12-18T08:17:30.765Z,59.34
2022-12-18T08:19:57.465Z,59.61
2022-12-18T08:22:24.147Z,59.69
2022-12-18T08:24:50.991Z,59.73
2022-12-18T08:27:33.000Z,58.75
2022-12-18T08:29:59.939Z,59.42
2022-12-18T08:32:26.682Z,59.18
2022-12-18T08:34:53.451Z,59.67
2022-12-18T08:37:20.088Z,59.41
2022-12-18T08:39:46.706Z,59.17
2022-12-18T08:42:13.514Z,59.96
2022-12-18T08:44:40.203Z,58.91
2022-12-18T08:47:06.865Z,58.62
2022-12-18T08:49:33.589Z,57.86
2022-12-18T08:52:00.264Z,57.58
2022-12-18T08:54:26.926Z,57.43
2022-12-18T08:56:53.584Z,56.13
2022-12-18T08:59:20.275Z,57.79
2022-12-18T09:01:47.564Z,57.50
2022-12-18T09:04:14.242Z,56.76
2022-12-18T09:06:40.968Z,55.81
2022-12-18T09:09:07.611Z,56.17
2022-12-18T09:11:34.256Z,56.15
2022-12-18T09:14:00.952Z,55.69
2022-12-18T09:16:31.974Z,55.52
2022-12-18T09:18:59.399Z,55.76
2022-12-18T09:21:26.026Z,55.22
2022-12-18T09:23:52.724Z,55.70
2022-12-18T09:26:19.396Z,55.17
2022-12-18T09:28:46.095Z,55.40
2022-12-18T09:31:12.810Z,55.58
2022-12-18T09:33:39.545Z,54.45
2022-12-18T09:36:06.608Z,56.00
2022-12-18T09:38:33.224Z,55.64
2022-12-18T09:40:59.935Z,54.17
2022-12-18T09:43:26.617Z,55.55
2022-12-18T09:45:53.346Z,55.07
2022-12-18T09:48:20.046Z,54.74
2022-12-18T09:50:46.744Z,54.51
2022-12-18T09:53:13.404Z,54.80
2022-12-18T09:55:40.080Z,54.85
2022-12-18T09:58:06.737Z,53.66
2022-12-18T10:00:34.246Z,55.34
2022-12-18T10:03:01.064Z,55.26
2022-12-18T10:05:27.707Z,55.42
2022-12-18T10:07:54.395Z,55.96
2022-12-18T10:10:21.122Z,56.74
2022-12-18T10:12:48.004Z,56.58
2022-12-18T10:15:14.686Z,56.24
2022-12-18T10:17:41.343Z,55.97
2022-12-18T10:20:08.009Z,56.80
2022-12-18T10:22:34.652Z,56.89
2022-12-18T10:25:01.297Z,57.45
2022-12-18T10:27:27.939Z,58.11
2022-12-18T10:29:54.892Z,59.02
2022-12-18T10:32:21.503Z,58.05
2022-12-18T10:34:48.176Z,57.75
2022-12-18T10:37:14.833Z,58.16
2022-12-18T10:39:41.494Z,55.95
2022-12-18T10:42:08.148Z,56.73
2022-12-18T10:44:34.821Z,55.46
2022-12-18T10:47:01.459Z,56.36
2022-12-18T10:49:28.120Z,57.66
2022-12-18T10:51:54.804Z,56.43
2022-12-18T10:54:21.457Z,56.38
2022-12-18T10:56:48.151Z,55.85
2022-12-18T10:59:14.818Z,56.38
2022-12-18T11:01:41.588Z,56.22
2022-12-18T11:04:08.310Z,57.06
2022-12-18T11:06:35.013Z,57.68
2022-12-18T11:09:01.874Z,58.63
2022-12-18T11:11:28.532Z,58.01
2022-12-18T11:13:55.238Z,56.31
2022-12-18T11:16:21.915Z,56.48
2022-12-18T11:18:48.686Z,55.96
2022-12-18T11:21:15.327Z,55.47
2022-12-18T11:23:42.023Z,55.57
2022-12-18T11:26:08.700Z,55.20
2022-12-18T11:28:35.396Z,55.67
2022-12-18T11:31:02.385Z,55.84
2022-12-18T11:33:29.070Z,56.97
2022-12-18T11:35:55.721Z,57.12
2022-12-18T11:38:22.363Z,57.54
2022-12-18T11:40:49.096Z,55.72
2022-12-18T11:43:15.877Z,56.01
2022-12-18T11:45:42.522Z,56.34
2022-12-18T11:48:10.881Z,58.14
2022-12-18T11:50:37.541Z,59.76
2022-12-18T11:53:06.513Z,60.27
2022-12-18T11:55:33.255Z,59.51
2022-12-18T11:57:59.905Z,59.14
2022-12-18T12:00:26.545Z,58.63
2022-12-18T12:02:53.254Z,58.27
2022-12-18T12:05:19.980Z,58.58
2022-12-18T12:07:46.645Z,59.47
2022-12-18T12:10:13.352Z,60.18
2022-12-18T12:12:43.952Z,59.62
2022-12-18T12:15:13.318Z,57.82
2022-12-18T12:17:39.969Z,57.08
2022-12-18T12:20:06.603Z,57.39
2022-12-18T12:22:33.705Z,57.83
2022-12-18T12:25:00.365Z,57.68
2022-12-18T12:27:27.025Z,57.40
2022-12-18T12:29:53.690Z,57.43
2022-12-18T12:32:20.418Z,58.07
2022-12-18T12:34:47.130Z,57.38
2022-12-18T12:37:13.805Z,57.92
2022-12-18T12:39:40.483Z,58.99
2022-12-18T12:42:07.113Z,59.39
2022-12-18T12:44:33.751Z,60.22
2022-12-18T12:47:00.411Z,59.39
2022-12-18T12:49:27.131Z,59.53
2022-12-18T12:51:53.977Z,59.88
2022-12-18T12:54:21.529Z,59.44
2022-12-18T12:56:48.385Z,60.67
2022-12-18T12:59:15.473Z,61.96
2022-12-18T13:01:43.243Z,61.14
2022-12-18T13:04:10.076Z,61.27
2022-12-18T13:06:41.515Z,62.84
2022-12-18T13:09:11.026Z,64.09
2022-12-18T13:11:37.787Z,64.86
2022-12-18T13:14:04.854Z,63.45
2022-12-18T13:16:32.356Z,63.06
2022-12-18T13:18:59.003Z,63.03
2022-12-18T13:21:25.661Z,61.71
2022-12-18T13:23:52.372Z,61.22
2022-12-18T13:26:23.238Z,62.94
2022-12-18T13:28:54.795Z,62.72
2022-12-18T13:31:21.475Z,63.34
2022-12-18T13:34:23.954Z,62.54
2022-12-18T13:36:34.806Z,63.74
2022-12-18T13:39:01.828Z,63.43
2022-12-18T13:41:28.472Z,63.83
2022-12-18T13:43:55.144Z,62.80
2022-12-18T13:46:21.801Z,61.40
2022-12-18T13:48:48.403Z,60.91
2022-12-18T13:51:15.374Z,60.21
2022-12-18T13:53:42.426Z,60.06
2022-12-18T13:56:09.669Z,59.62
2022-12-18T13:58:36.849Z,59.49
2022-12-18T14:01:03.768Z,59.10
2022-12-18T14:03:30.715Z,59.30
2022-12-18T14:05:57.600Z,60.68
2022-12-18T14:08:24.285Z,60.29
2022-12-18T14:10:51.462Z,60.85
2022-12-18T14:13:18.185Z,62.82
2022-12-18T14:15:47.660Z,63.88
2022-12-18T14:18:15.144Z,65.04
2022-12-18T14:20:41.766Z,65.00
2022-12-18T14:23:08.444Z,64.43
2022-12-18T14:25:35.074Z,63.88
2022-12-18T14:28:01.790Z,63.52
2022-12-18T14:30:28.490Z,63.75
2022-12-18T14:32:55.155Z,63.21
2022-12-18T14:35:21.799Z,62.51
2022-12-18T14:37:48.458Z,63.68
2022-12-18T14:40:15.165Z,64.23
2022-12-18T14:42:41.831Z,64.35
2022-12-18T14:45:15.645Z,64.61
2022-12-18T14:47:42.351Z,64.37
2022-12-18T14:50:09.031Z,64.29
2022-12-18T14:52:35.726Z,64.49
2022-12-18T14:55:02.375Z,64.77
2022-12-18T14:57:29.024Z,65.59
2022-12-18T14:59:55.704Z,65.80
2022-12-18T15:02:22.585Z,65.07
2022-12-18T15:04:49.431Z,63.99
2022-12-18T15:07:16.254Z,63.56
2022-12-18T15:09:43.874Z,64.54
2022-12-18T15:12:10.537Z,64.20
2022-12-18T15:14:37.224Z,64.53
2022-12-18T15:17:03.915Z,63.66
2022-12-18T15:19:30.588Z,62.80
2022-12-18T15:22:00.255Z,62.45
2022-12-18T15:24:31.169Z,61.74
2022-12-18T15:26:57.806Z,61.40
2022-12-18T15:29:24.466Z,61.03
2022-12-18T15:31:51.140Z,60.95
2022-12-18T15:34:17.774Z,60.87
2022-12-18T15:36:44.430Z,60.61
2022-12-18T15:39:11.130Z,60.06
2022-12-18T15:41:37.786Z,61.06
2022-12-18T15:44:04.419Z,61.26
2022-12-18T15:46:31.140Z,61.76
2022-12-18T15:49:01.757Z,62.86
2022-12-18T15:51:29.511Z,63.39
2022-12-18T15:53:56.343Z,62.57
2022-12-18T15:56:22.996Z,62.43
2022-12-18T15:58:49.649Z,62.12
2022-12-18T16:01:16.403Z,62.11
2022-12-18T16:03:43.510Z,61.60
2022-12-18T16:06:10.597Z,61.27
2022-12-18T16:08:37.306Z,62.20
2022-12-18T16:11:05.432Z,63.50
2022-12-18T16:13:32.085Z,63.19
2022-12-18T16:15:59.524Z,62.79
2022-12-18T16:18:26.244Z,62.19
2022-12-18T16:20:52.886Z,62.17
2022-12-18T16:23:19.525Z,62.30
2022-12-18T16:25:46.210Z,61.70
2022-12-18T16:28:12.831Z,62.01
2022-12-18T16:30:39.432Z,62.58
2022-12-18T16:33:07.451Z,62.08
2022-12-18T16:35:34.425Z,61.47
2022-12-18T16:38:01.056Z,62.01
2022-12-18T16:40:27.718Z,61.70
2022-12-18T16:42:54.432Z,61.79
2022-12-18T16:45:21.112Z,61.17
2022-12-18T16:47:47.779Z,60.85
2022-12-18T16:50:14.477Z,60.52
2022-12-18T16:52:41.132Z,60.88
2022-12-18T16:55:07.791Z,60.56
2022-12-18T16:57:34.415Z,60.57
2022-12-18T17:00:05.193Z,60.70
2022-12-18T17:02:32.836Z,60.45
2022-12-18T17:04:59.623Z,60.43
2022-12-18T17:07:26.533Z,60.21
2022-12-18T17:09:53.156Z,60.00
2022-12-18T17:12:19.843Z,59.95
2022-12-18T17:14:46.584Z,60.66
2022-12-18T17:17:22.293Z,60.80
2022-12-18T17:19:49.921Z,61.62
2022-12-18T17:22:16.624Z,61.58
2022-12-18T17:24:43.319Z,60.76
2022-12-18T17:27:09.993Z,60.51
2022-12-18T17:29:36.600Z,59.72
2022-12-18T17:32:03.322Z,60.21
2022-12-18T17:34:30.090Z,59.85
2022-12-18T17:36:57.714Z,60.10
2022-12-18T17:39:24.387Z,60.04
2022-12-18T17:41:51.120Z,60.15
2022-12-18T17:44:17.787Z,60.73
2022-12-18T17:46:44.492Z,60.50
2022-12-18T17:49:11.243Z,60.79
2022-12-18T17:51:37.947Z,60.84
2022-12-18T17:54:04.626Z,60.64
2022-12-18T17:56:31.467Z,60.27
2022-12-18T17:58:58.296Z,60.40
2022-12-18T18:01:25.138Z,60.47
2022-12-18T18:03:53.839Z,60.82
2022-12-18T18:06:20.733Z,60.57
2022-12-18T18:08:47.379Z,60.29
2022-12-18T18:11:14.471Z,60.23
2022-12-18T18:13:46.567Z,59.72
2022-12-18T18:16:13.699Z,60.03
2022-12-18T18:18:40.365Z,60.05
2022-12-18T18:21:07.076Z,60.07
2022-12-18T18:23:34.211Z,59.80
2022-12-18T18:26:00.904Z,59.81
2022-12-18T18:28:27.695Z,60.06
2022-12-18T18:30:54.388Z,60.47
2022-12-18T18:33:21.026Z,60.42
2022-12-18T18:35:55.111Z,60.09
2022-12-18T18:38:21.791Z,60.60
2022-12-18T18:40:48.500Z,60.04
2022-12-18T18:43:15.175Z,60.16
2022-12-18T18:45:41.944Z,59.28
2022-12-18T18:48:10.298Z,59.37
2022-12-18T18:50:36.963Z,59.79
2022-12-18T18:53:03.597Z,59.55
2022-12-18T18:55:30.275Z,59.67
2022-12-18T18:57:56.963Z,59.35
2022-12-18T19:00:23.722Z,59.51
2022-12-18T19:02:52.191Z,59.26
2022-12-18T19:05:20.752Z,59.95
2022-12-18T19:07:47.473Z,59.72
2022-12-18T19:10:14.148Z,59.58
2022-12-18T19:12:40.760Z,59.63
2022-12-18T19:15:07.601Z,60.02
2022-12-18T19:17:34.877Z,59.50
2022-12-18T19:20:01.984Z,59.96
2022-12-18T19:22:28.840Z,60.15
2022-12-18T19:24:55.536Z,59.83
2022-12-18T19:27:22.268Z,60.02
2022-12-18T19:29:48.921Z,59.87
2022-12-18T19:32:15.724Z,60.23
2022-12-18T19:34:42.404Z,59.69
2022-12-18T19:37:11.548Z,60.41
2022-12-18T19:39:38.286Z,60.95
2022-12-18T19:42:04.981Z,61.17
2022-12-18T19:44:31.695Z,61.16
2022-12-18T19:46:58.365Z,61.46
2022-12-18T19:49:24.994Z,60.95
2022-12-18T19:51:51.787Z,60.27
2022-12-18T19:54:18.480Z,60.08
2022-12-18T19:56:45.433Z,59.61
2022-12-18T19:59:12.133Z,60.08
2022-12-18T20:01:39.038Z,60.71
2022-12-18T20:04:06.144Z,60.56
2022-12-18T20:06:33.539Z,60.23
2022-12-18T20:09:01.058Z,59.65
2022-12-18T20:11:28.072Z,60.15
2022-12-18T20:13:54.706Z,60.01
2022-12-18T20:16:21.435Z,59.97
2022-12-18T20:18:48.155Z,60.05
2022-12-18T20:21:14.801Z,59.36
2022-12-18T20:23:41.891Z,60.11
2022-12-18T20:26:08.862Z,59.49
2022-12-18T20:28:35.566Z,59.96
2022-12-18T20:31:02.621Z,59.59
2022-12-18T20:33:29.571Z,59.81
2022-12-18T20:35:56.277Z,59.64
2022-12-18T20:38:23.068Z,59.43
2022-12-18T20:40:51.398Z,58.94
2022-12-18T20:43:18.025Z,59.49
2022-12-18T20:45:44.806Z,59.97
2022-12-18T20:48:13.684Z,59.30
2022-12-18T20:50:40.309Z,59.39
2022-12-18T20:53:06.991Z,59.79
2022-12-18T20:55:33.693Z,59.37
2022-12-18T20:58:00.376Z,59.34
2022-12-18T21:00:27.058Z,59.64
2022-12-18T21:02:53.805Z,59.63
2022-12-18T21:05:20.655Z,59.35
2022-12-18T21:07:47.332Z,59.12
2022-12-18T21:10:14.045Z,59.72
2022-12-18T21:12:44.043Z,59.52
2022-12-18T21:15:15.083Z,59.82
2022-12-18T21:17:44.584Z,59.77
2022-12-18T21:20:14.088Z,59.61
2022-12-18T21:22:44.970Z,59.46
2022-12-18T21:25:11.667Z,59.15
2022-12-18T21:27:38.347Z,59.45
2022-12-18T21:30:05.111Z,60.21
2022-12-18T21:32:33.570Z,59.58
2022-12-18T21:35:00.421Z,59.53
2022-12-18T21:37:27.141Z,59.96
2022-12-18T21:39:53.744Z,59.81
2022-12-18T21:42:20.407Z,59.64
2022-12-18T21:44:47.244Z,59.04
2022-12-18T21:47:22.290Z,59.04
2022-12-18T21:49:49.857Z,59.75
2022-12-18T21:52:16.783Z,59.78
2022-12-18T21:54:43.620Z,59.48
2022-12-18T21:57:10.284Z,59.14
2022-12-18T21:59:36.920Z,59.52
2022-12-18T22:02:03.634Z,59.14
2022-12-18T22:04:30.421Z,59.57
2022-12-18T22:06:57.066Z,59.56
2022-12-18T22:09:24.722Z,58.92
2022-12-18T22:11:51.414Z,59.32
2022-12-18T22:14:18.049Z,59.50
2022-12-18T22:16:44.695Z,60.34
2022-12-18T22:19:11.966Z,60.21
2022-12-18T22:21:39.067Z,60.74
2022-12-18T22:24:05.756Z,60.28
2022-12-18T22:26:37.895Z,59.89
2022-12-18T22:29:06.569Z,60.08
2022-12-18T22:31:33.286Z,60.91
2022-12-18T22:34:00.044Z,60.13
2022-12-18T22:36:26.713Z,59.90
2022-12-18T22:38:53.378Z,59.40
2022-12-18T22:41:20.300Z,59.58
2022-12-18T22:43:46.937Z,60.08
2022-12-18T22:46:13.668Z,60.02
2022-12-18T22:48:40.425Z,59.61
2022-12-18T22:51:07.107Z,60.60
2022-12-18T22:53:34.117Z,60.34
2022-12-18T22:56:00.766Z,60.45
2022-12-18T22:58:27.452Z,60.41
2022-12-18T23:00:54.092Z,60.74
2022-12-18T23:03:20.738Z,61.46
2022-12-18T23:05:47.465Z,61.03
2022-12-18T23:08:14.138Z,62.01
2022-12-18T23:10:40.771Z,61.45
2022-12-18T23:13:07.380Z,61.15
2022-12-18T23:15:34.043Z,60.82
2022-12-18T23:18:00.678Z,60.36
2022-12-18T23:20:27.409Z,60.51
2022-12-18T23:22:54.069Z,60.47
2022-12-18T23:25:20.824Z,59.73
2022-12-18T23:27:47.547Z,59.60
2022-12-18T23:30:14.248Z,59.25
2022-12-18T23:32:40.928Z,58.72
2022-12-18T23:35:07.858Z,58.95
2022-12-18T23:37:58.363Z,58.88
2022-12-18T23:40:23.274Z,59.38
2022-12-18T23:42:49.933Z,58.78
2022-12-18T23:45:17.942Z,59.00
2022-12-18T23:47:44.950Z,59.14
2022-12-18T23:50:13.722Z,58.46
2022-12-18T23:52:40.389Z,59.22
2022-12-18T23:55:07.023Z,58.47
2022-12-18T23:57:33.701Z,58.85
